sensor_id;sensor_type;location;lat;lon;timestamp;P1;durP1;ratioP1;P2;durP2;ratioP2
43682;SDS011;29285;52.128;21.060;2022-12-22T00:01:34;45.30;;;25.55;;
43682;SDS011;29285;52.128;21.060;2022-12-22T00:06:54;45.30;;;24.57;;
43682;SDS011;29285;52.128;21.060;2022-12-22T00:12:15;49.30;;;26.85;;
43682;SDS011;29285;52.128;21.060;2022-12-22T00:17:37;44.93;;;23.22;;
43682;SDS011;29285;52.128;21.060;2022-12-22T00:22:57;39.50;;;21.20;;
43682;SDS011;29285;52.128;21.060;2022-12-22T00:28:17;49.48;;;24.98;;
43682;SDS011;29285;52.128;21.060;2022-12-22T00:33:37;46.83;;;23.32;;
43682;SDS011;29285;52.128;21.060;2022-12-22T00:38:56;53.73;;;25.92;;
43682;SDS011;29285;52.128;21.060;2022-12-22T00:44:17;52.88;;;25.92;;
43682;SDS011;29285;52.128;21.060;2022-12-22T00:49:36;50.55;;;26.68;;
43682;SDS011;29285;52.128;21.060;2022-12-22T00:54:59;49.55;;;22.17;;
43682;SDS011;29285;52.128;21.060;2022-12-22T01:00:19;51.90;;;29.15;;
43682;SDS011;29285;52.128;21.060;2022-12-22T01:05:39;51.48;;;26.23;;
43682;SDS011;29285;52.128;21.060;2022-12-22T01:10:59;46.05;;;24.10;;
43682;SDS011;29285;52.128;21.060;2022-12-22T01:16:19;45.98;;;24.32;;
43682;SDS011;29285;52.128;21.060;2022-12-22T01:21:38;48.15;;;24.95;;
43682;SDS011;29285;52.128;21.060;2022-12-22T01:27:00;44.15;;;21.35;;
43682;SDS011;29285;52.128;21.060;2022-12-22T01:32:21;43.02;;;20.72;;
43682;SDS011;29285;52.128;21.060;2022-12-22T01:37:41;56.40;;;24.27;;
43682;SDS011;29285;52.128;21.060;2022-12-22T01:43:00;44.38;;;21.27;;
43682;SDS011;29285;52.128;21.060;2022-12-22T01:48:26;47.53;;;22.05;;
43682;SDS011;29285;52.128;21.060;2022-12-22T01:53:47;45.73;;;22.95;;
43682;SDS011;29285;52.128;21.060;2022-12-22T01:59:08;42.93;;;19.73;;
43682;SDS011;29285;52.128;21.060;2022-12-22T02:04:29;50.60;;;23.67;;
43682;SDS011;29285;52.128;21.060;2022-12-22T02:21:21;42.95;;;20.95;;
43682;SDS011;29285;52.128;21.060;2022-12-22T02:26:44;50.98;;;22.87;;
43682;SDS011;29285;52.128;21.060;2022-12-22T02:32:07;44.00;;;20.48;;
43682;SDS011;29285;52.128;21.060;2022-12-22T02:54:07;44.38;;;20.62;;
43682;SDS011;29285;52.128;21.060;2022-12-22T02:59:27;41.77;;;19.85;;
43682;SDS011;29285;52.128;21.060;2022-12-22T03:04:47;48.38;;;23.40;;
43682;SDS011;29285;52.128;21.060;2022-12-22T03:10:07;39.92;;;19.40;;
43682;SDS011;29285;52.128;21.060;2022-12-22T03:15:28;43.45;;;20.37;;
43682;SDS011;29285;52.128;21.060;2022-12-22T03:20:48;40.63;;;19.23;;
43682;SDS011;29285;52.128;21.060;2022-12-22T03:26:08;36.53;;;19.35;;
43682;SDS011;29285;52.128;21.060;2022-12-22T03:31:10;42.95;;;22.73;;
43682;SDS011;29285;52.128;21.060;2022-12-22T03:36:12;41.25;;;21.00;;
43682;SDS011;29285;52.128;21.060;2022-12-22T03:41:13;38.28;;;20.37;;
43682;SDS011;29285;52.128;21.060;2022-12-22T03:46:33;43.33;;;22.17;;
43682;SDS011;29285;52.128;21.060;2022-12-22T03:51:36;34.60;;;18.57;;
43682;SDS011;29285;52.128;21.060;2022-12-22T03:56:41;39.92;;;21.00;;
43682;SDS011;29285;52.128;21.060;2022-12-22T04:01:48;37.08;;;21.17;;
43682;SDS011;29285;52.128;21.060;2022-12-22T04:06:50;41.77;;;21.23;;
43682;SDS011;29285;52.128;21.060;2022-12-22T04:11:52;40.88;;;22.13;;
43682;SDS011;29285;52.128;21.060;2022-12-22T04:17:12;36.70;;;20.10;;
43682;SDS011;29285;52.128;21.060;2022-12-22T04:22:13;35.92;;;20.70;;
43682;SDS011;29285;52.128;21.060;2022-12-22T04:27:15;41.05;;;22.32;;
43682;SDS011;29285;52.128;21.060;2022-12-22T04:32:17;38.40;;;21.42;;
43682;SDS011;29285;52.128;21.060;2022-12-22T04:37:18;35.33;;;19.23;;
43682;SDS011;29285;52.128;21.060;2022-12-22T04:42:19;35.33;;;19.52;;
43682;SDS011;29285;52.128;21.060;2022-12-22T04:47:21;35.00;;;20.70;;
43682;SDS011;29285;52.128;21.060;2022-12-22T04:52:22;38.35;;;22.13;;
43682;SDS011;29285;52.128;21.060;2022-12-22T04:57:24;37.05;;;19.87;;
43682;SDS011;29285;52.128;21.060;2022-12-22T05:02:25;33.35;;;19.20;;
43682;SDS011;29285;52.128;21.060;2022-12-22T05:07:26;33.65;;;21.85;;
43682;SDS011;29285;52.128;21.060;2022-12-22T05:12:28;34.33;;;20.90;;
43682;SDS011;29285;52.128;21.060;2022-12-22T05:17:47;33.50;;;18.60;;
43682;SDS011;29285;52.128;21.060;2022-12-22T05:22:49;35.20;;;20.48;;
43682;SDS011;29285;52.128;21.060;2022-12-22T05:27:50;27.48;;;16.77;;
43682;SDS011;29285;52.128;21.060;2022-12-22T05:32:52;36.38;;;19.23;;
43682;SDS011;29285;52.128;21.060;2022-12-22T05:37:53;33.25;;;19.98;;
43682;SDS011;29285;52.128;21.060;2022-12-22T05:42:54;34.30;;;21.27;;
43682;SDS011;29285;52.128;21.060;2022-12-22T05:47:55;30.70;;;18.95;;
43682;SDS011;29285;52.128;21.060;2022-12-22T05:52:57;31.70;;;19.92;;
43682;SDS011;29285;52.128;21.060;2022-12-22T05:57:59;32.13;;;21.52;;
43682;SDS011;29285;52.128;21.060;2022-12-22T06:03:01;33.70;;;21.00;;
43682;SDS011;29285;52.128;21.060;2022-12-22T06:08:02;32.90;;;19.67;;
43682;SDS011;29285;52.128;21.060;2022-12-22T06:13:04;30.32;;;19.70;;
43682;SDS011;29285;52.128;21.060;2022-12-22T06:18:05;34.48;;;21.05;;
43682;SDS011;29285;52.128;21.060;2022-12-22T06:23:07;34.33;;;20.75;;
43682;SDS011;29285;52.128;21.060;2022-12-22T06:28:08;27.93;;;17.67;;
43682;SDS011;29285;52.128;21.060;2022-12-22T06:33:09;31.37;;;20.62;;
43682;SDS011;29285;52.128;21.060;2022-12-22T06:38:11;29.80;;;17.73;;
43682;SDS011;29285;52.128;21.060;2022-12-22T06:43:13;27.22;;;17.27;;
43682;SDS011;29285;52.128;21.060;2022-12-22T06:48:14;26.07;;;17.00;;
43682;SDS011;29285;52.128;21.060;2022-12-22T06:53:16;30.52;;;18.60;;
43682;SDS011;29285;52.128;21.060;2022-12-22T06:58:17;32.98;;;18.60;;
43682;SDS011;29285;52.128;21.060;2022-12-22T07:03:18;33.78;;;22.15;;
43682;SDS011;29285;52.128;21.060;2022-12-22T07:08:19;32.45;;;20.17;;
43682;SDS011;29285;52.128;21.060;2022-12-22T07:13:21;26.15;;;16.00;;
43682;SDS011;29285;52.128;21.060;2022-12-22T07:18:23;31.20;;;19.32;;
43682;SDS011;29285;52.128;21.060;2022-12-22T07:23:25;30.75;;;19.85;;
43682;SDS011;29285;52.128;21.060;2022-12-22T07:28:27;31.23;;;19.57;;
43682;SDS011;29285;52.128;21.060;2022-12-22T07:33:29;29.00;;;16.52;;
43682;SDS011;29285;52.128;21.060;2022-12-22T07:38:31;29.40;;;16.87;;
43682;SDS011;29285;52.128;21.060;2022-12-22T07:43:35;26.87;;;16.67;;
43682;SDS011;29285;52.128;21.060;2022-12-22T07:48:36;31.90;;;18.90;;
43682;SDS011;29285;52.128;21.060;2022-12-22T07:53:56;25.17;;;17.32;;
43682;SDS011;29285;52.128;21.060;2022-12-22T07:58:58;29.92;;;19.30;;
43682;SDS011;29285;52.128;21.060;2022-12-22T08:03:59;31.00;;;17.42;;
43682;SDS011;29285;52.128;21.060;2022-12-22T08:09:01;28.50;;;18.45;;
43682;SDS011;29285;52.128;21.060;2022-12-22T08:14:04;27.30;;;17.25;;
43682;SDS011;29285;52.128;21.060;2022-12-22T08:19:06;31.12;;;18.15;;
43682;SDS011;29285;52.128;21.060;2022-12-22T08:24:07;32.17;;;19.60;;
43682;SDS011;29285;52.128;21.060;2022-12-22T08:29:13;32.20;;;17.48;;
43682;SDS011;29285;52.128;21.060;2022-12-22T08:34:21;26.02;;;16.85;;
43682;SDS011;29285;52.128;21.060;2022-12-22T08:39:22;29.18;;;18.45;;
43682;SDS011;29285;52.128;21.060;2022-12-22T08:44:27;29.72;;;19.12;;
43682;SDS011;29285;52.128;21.060;2022-12-22T08:49:30;27.55;;;17.65;;
43682;SDS011;29285;52.128;21.060;2022-12-22T08:54:32;25.30;;;15.68;;
43682;SDS011;29285;52.128;21.060;2022-12-22T08:59:34;27.95;;;17.73;;
43682;SDS011;29285;52.128;21.060;2022-12-22T09:04:35;27.22;;;17.80;;
43682;SDS011;29285;52.128;21.060;2022-12-22T09:09:37;27.70;;;17.27;;
43682;SDS011;29285;52.128;21.060;2022-12-22T09:14:39;29.72;;;18.35;;
43682;SDS011;29285;52.128;21.060;2022-12-22T09:19:40;28.00;;;17.02;;
43682;SDS011;29285;52.128;21.060;2022-12-22T09:24:41;26.95;;;17.57;;
43682;SDS011;29285;52.128;21.060;2022-12-22T09:29:43;28.10;;;17.75;;
43682;SDS011;29285;52.128;21.060;2022-12-22T09:34:44;35.60;;;20.35;;
43682;SDS011;29285;52.128;21.060;2022-12-22T09:44:47;29.10;;;17.82;;
43682;SDS011;29285;52.128;21.060;2022-12-22T09:49:51;27.42;;;17.25;;
43682;SDS011;29285;52.128;21.060;2022-12-22T09:54:55;26.95;;;17.67;;
43682;SDS011;29285;52.128;21.060;2022-12-22T10:00:09;27.20;;;16.45;;
43682;SDS011;29285;52.128;21.060;2022-12-22T10:05:22;31.73;;;19.85;;
43682;SDS011;29285;52.128;21.060;2022-12-22T10:10:35;31.62;;;19.67;;
43682;SDS011;29285;52.128;21.060;2022-12-22T10:15:37;33.83;;;18.37;;
43682;SDS011;29285;52.128;21.060;2022-12-22T10:36:27;33.83;;;20.52;;
43682;SDS011;29285;52.128;21.060;2022-12-22T10:41:37;32.78;;;19.23;;
43682;SDS011;29285;52.128;21.060;2022-12-22T10:46:50;30.77;;;18.12;;
43682;SDS011;29285;52.128;21.060;2022-12-22T10:57:04;29.90;;;19.40;;
43682;SDS011;29285;52.128;21.060;2022-12-22T11:02:31;33.98;;;19.52;;
43682;SDS011;29285;52.128;21.060;2022-12-22T11:07:38;28.00;;;18.50;;
43682;SDS011;29285;52.128;21.060;2022-12-22T11:44:59;26.90;;;18.92;;
43682;SDS011;29285;52.128;21.060;2022-12-22T11:55:39;25.25;;;16.67;;
43682;SDS011;29285;52.128;21.060;2022-12-22T12:00:55;23.25;;;15.80;;
43682;SDS011;29285;52.128;21.060;2022-12-22T12:16:56;22.98;;;16.80;;
43682;SDS011;29285;52.128;21.060;2022-12-22T12:22:00;24.32;;;18.23;;
43682;SDS011;29285;52.128;21.060;2022-12-22T12:27:13;22.52;;;16.40;;
43682;SDS011;29285;52.128;21.060;2022-12-22T12:32:30;21.20;;;14.58;;
43682;SDS011;29285;52.128;21.060;2022-12-22T12:37:36;19.12;;;14.47;;
43682;SDS011;29285;52.128;21.060;2022-12-22T12:42:41;19.55;;;12.82;;
43682;SDS011;29285;52.128;21.060;2022-12-22T12:47:45;20.25;;;13.18;;
43682;SDS011;29285;52.128;21.060;2022-12-22T12:57:53;17.40;;;11.12;;
43682;SDS011;29285;52.128;21.060;2022-12-22T13:02:56;18.05;;;11.18;;
43682;SDS011;29285;52.128;21.060;2022-12-22T13:08:13;18.95;;;13.43;;
43682;SDS011;29285;52.128;21.060;2022-12-22T13:23:44;19.80;;;12.73;;
43682;SDS011;29285;52.128;21.060;2022-12-22T13:28:59;19.82;;;13.68;;
43682;SDS011;29285;52.128;21.060;2022-12-22T13:45:33;21.50;;;12.82;;
43682;SDS011;29285;52.128;21.060;2022-12-22T13:50:36;20.23;;;12.80;;
43682;SDS011;29285;52.128;21.060;2022-12-22T13:55:45;21.77;;;13.85;;
43682;SDS011;29285;52.128;21.060;2022-12-22T14:00:58;22.43;;;14.83;;
43682;SDS011;29285;52.128;21.060;2022-12-22T14:06:17;24.30;;;15.60;;
43682;SDS011;29285;52.128;21.060;2022-12-22T14:11:33;26.30;;;17.75;;
43682;SDS011;29285;52.128;21.060;2022-12-22T14:16:34;23.47;;;16.42;;
43682;SDS011;29285;52.128;21.060;2022-12-22T14:22:00;24.63;;;14.60;;
43682;SDS011;29285;52.128;21.060;2022-12-22T14:26:56;24.40;;;16.17;;
43682;SDS011;29285;52.128;21.060;2022-12-22T14:31:58;20.52;;;14.43;;
43682;SDS011;29285;52.128;21.060;2022-12-22T14:37:02;24.35;;;14.80;;
43682;SDS011;29285;52.128;21.060;2022-12-22T14:42:04;20.80;;;14.83;;
43682;SDS011;29285;52.128;21.060;2022-12-22T14:52:29;24.18;;;16.10;;
43682;SDS011;29285;52.128;21.060;2022-12-22T14:57:35;21.05;;;14.33;;
43682;SDS011;29285;52.128;21.060;2022-12-22T15:02:44;22.65;;;15.55;;
43682;SDS011;29285;52.128;21.060;2022-12-22T15:07:47;23.87;;;15.35;;
43682;SDS011;29285;52.128;21.060;2022-12-22T15:12:52;25.95;;;17.32;;
43682;SDS011;29285;52.128;21.060;2022-12-22T15:17:59;25.97;;;16.70;;
43682;SDS011;29285;52.128;21.060;2022-12-22T15:23:00;26.55;;;16.75;;
43682;SDS011;29285;52.128;21.060;2022-12-22T15:28:02;23.18;;;16.02;;
43682;SDS011;29285;52.128;21.060;2022-12-22T15:33:05;25.82;;;17.17;;
43682;SDS011;29285;52.128;21.060;2022-12-22T15:38:13;25.80;;;16.17;;
43682;SDS011;29285;52.128;21.060;2022-12-22T15:43:18;25.17;;;17.12;;
43682;SDS011;29285;52.128;21.060;2022-12-22T15:48:24;26.82;;;16.57;;
43682;SDS011;29285;52.128;21.060;2022-12-22T15:53:32;30.30;;;19.73;;
43682;SDS011;29285;52.128;21.060;2022-12-22T16:03:38;24.87;;;17.60;;
43682;SDS011;29285;52.128;21.060;2022-12-22T16:08:39;26.52;;;16.97;;
43682;SDS011;29285;52.128;21.060;2022-12-22T16:13:45;25.23;;;17.00;;
43682;SDS011;29285;52.128;21.060;2022-12-22T16:18:48;27.37;;;17.95;;
43682;SDS011;29285;52.128;21.060;2022-12-22T16:23:51;27.98;;;17.85;;
43682;SDS011;29285;52.128;21.060;2022-12-22T16:28:54;28.87;;;19.52;;
43682;SDS011;29285;52.128;21.060;2022-12-22T16:33:57;24.20;;;16.62;;
43682;SDS011;29285;52.128;21.060;2022-12-22T16:38:59;31.37;;;18.00;;
43682;SDS011;29285;52.128;21.060;2022-12-22T16:44:00;29.95;;;20.08;;
43682;SDS011;29285;52.128;21.060;2022-12-22T16:49:02;24.75;;;16.25;;
43682;SDS011;29285;52.128;21.060;2022-12-22T16:54:09;28.92;;;18.45;;
43682;SDS011;29285;52.128;21.060;2022-12-22T16:59:13;31.25;;;19.92;;
43682;SDS011;29285;52.128;21.060;2022-12-22T17:04:19;31.75;;;19.80;;
43682;SDS011;29285;52.128;21.060;2022-12-22T17:09:29;28.95;;;17.65;;
43682;SDS011;29285;52.128;21.060;2022-12-22T17:14:34;28.10;;;18.40;;
43682;SDS011;29285;52.128;21.060;2022-12-22T17:19:38;29.80;;;18.73;;
43682;SDS011;29285;52.128;21.060;2022-12-22T17:24:40;32.33;;;18.85;;
43682;SDS011;29285;52.128;21.060;2022-12-22T17:29:41;31.15;;;20.48;;
43682;SDS011;29285;52.128;21.060;2022-12-22T17:34:43;28.32;;;17.70;;
43682;SDS011;29285;52.128;21.060;2022-12-22T17:39:44;29.25;;;18.87;;
43682;SDS011;29285;52.128;21.060;2022-12-22T17:44:52;30.05;;;19.02;;
43682;SDS011;29285;52.128;21.060;2022-12-22T17:49:53;28.90;;;18.35;;
43682;SDS011;29285;52.128;21.060;2022-12-22T17:54:55;32.73;;;20.97;;
43682;SDS011;29285;52.128;21.060;2022-12-22T17:59:57;31.40;;;20.43;;
43682;SDS011;29285;52.128;21.060;2022-12-22T18:05:00;30.20;;;20.00;;
43682;SDS011;29285;52.128;21.060;2022-12-22T18:10:01;28.57;;;19.65;;
43682;SDS011;29285;52.128;21.060;2022-12-22T18:15:09;32.45;;;20.20;;
43682;SDS011;29285;52.128;21.060;2022-12-22T18:20:14;30.30;;;19.12;;
43682;SDS011;29285;52.128;21.060;2022-12-22T18:25:22;32.55;;;21.05;;
43682;SDS011;29285;52.128;21.060;2022-12-22T18:30:28;32.33;;;20.30;;
43682;SDS011;29285;52.128;21.060;2022-12-22T18:35:30;28.37;;;19.43;;
43682;SDS011;29285;52.128;21.060;2022-12-22T18:40:33;30.32;;;19.73;;
43682;SDS011;29285;52.128;21.060;2022-12-22T18:45:37;24.37;;;16.40;;
43682;SDS011;29285;52.128;21.060;2022-12-22T18:50:39;30.95;;;17.98;;
43682;SDS011;29285;52.128;21.060;2022-12-22T18:55:41;28.45;;;18.37;;
43682;SDS011;29285;52.128;21.060;2022-12-22T19:00:44;31.12;;;18.10;;
43682;SDS011;29285;52.128;21.060;2022-12-22T19:05:47;26.00;;;16.50;;
43682;SDS011;29285;52.128;21.060;2022-12-22T19:10:50;29.25;;;19.25;;
43682;SDS011;29285;52.128;21.060;2022-12-22T19:15:57;30.15;;;20.82;;
43682;SDS011;29285;52.128;21.060;2022-12-22T19:20:59;28.23;;;16.67;;
43682;SDS011;29285;52.128;21.060;2022-12-22T19:26:01;26.35;;;16.60;;
43682;SDS011;29285;52.128;21.060;2022-12-22T19:31:05;28.65;;;18.07;;
43682;SDS011;29285;52.128;21.060;2022-12-22T19:36:20;27.52;;;18.77;;
43682;SDS011;29285;52.128;21.060;2022-12-22T19:46:52;26.65;;;17.02;;
43682;SDS011;29285;52.128;21.060;2022-12-22T19:51:56;30.02;;;18.07;;
43682;SDS011;29285;52.128;21.060;2022-12-22T19:56:57;26.68;;;17.02;;
43682;SDS011;29285;52.128;21.060;2022-12-22T20:01:59;29.57;;;16.93;;
43682;SDS011;29285;52.128;21.060;2022-12-22T20:07:01;27.02;;;17.05;;
43682;SDS011;29285;52.128;21.060;2022-12-22T20:12:02;27.67;;;18.00;;
43682;SDS011;29285;52.128;21.060;2022-12-22T20:17:03;27.10;;;16.73;;
43682;SDS011;29285;52.128;21.060;2022-12-22T20:22:05;29.23;;;15.43;;
43682;SDS011;29285;52.128;21.060;2022-12-22T20:32:30;26.57;;;16.05;;
43682;SDS011;29285;52.128;21.060;2022-12-22T20:37:31;23.22;;;14.43;;
43682;SDS011;29285;52.128;21.060;2022-12-22T20:42:33;23.00;;;15.48;;
43682;SDS011;29285;52.128;21.060;2022-12-22T20:47:34;22.75;;;14.35;;
43682;SDS011;29285;52.128;21.060;2022-12-22T20:52:36;26.33;;;15.72;;
43682;SDS011;29285;52.128;21.060;2022-12-22T20:57:37;23.00;;;14.73;;
43682;SDS011;29285;52.128;21.060;2022-12-22T21:02:38;25.43;;;15.08;;
43682;SDS011;29285;52.128;21.060;2022-12-22T21:07:43;26.90;;;15.93;;
43682;SDS011;29285;52.128;21.060;2022-12-22T21:12:47;22.48;;;14.63;;
43682;SDS011;29285;52.128;21.060;2022-12-22T21:17:50;24.23;;;14.45;;
43682;SDS011;29285;52.128;21.060;2022-12-22T21:22:52;24.57;;;14.07;;
43682;SDS011;29285;52.128;21.060;2022-12-22T21:27:53;23.52;;;15.13;;
43682;SDS011;29285;52.128;21.060;2022-12-22T21:32:55;23.80;;;14.18;;
43682;SDS011;29285;52.128;21.060;2022-12-22T21:37:57;28.20;;;13.98;;
43682;SDS011;29285;52.128;21.060;2022-12-22T21:42:59;21.90;;;14.10;;
43682;SDS011;29285;52.128;21.060;2022-12-22T21:48:00;22.75;;;13.38;;
43682;SDS011;29285;52.128;21.060;2022-12-22T21:53:01;20.37;;;12.90;;
43682;SDS011;29285;52.128;21.060;2022-12-22T21:58:04;20.70;;;12.98;;
43682;SDS011;29285;52.128;21.060;2022-12-22T22:03:09;22.00;;;13.62;;
43682;SDS011;29285;52.128;21.060;2022-12-22T22:08:13;20.02;;;12.55;;
43682;SDS011;29285;52.128;21.060;2022-12-22T22:13:14;21.90;;;13.25;;
43682;SDS011;29285;52.128;21.060;2022-12-22T22:18:16;20.90;;;13.78;;
43682;SDS011;29285;52.128;21.060;2022-12-22T22:25:30;20.70;;;12.80;;
43682;SDS011;29285;52.128;21.060;2022-12-22T22:30:31;20.60;;;12.93;;
43682;SDS011;29285;52.128;21.060;2022-12-22T22:35:33;19.40;;;12.95;;
43682;SDS011;29285;52.128;21.060;2022-12-22T22:40:34;21.23;;;12.82;;
43682;SDS011;29285;52.128;21.060;2022-12-22T22:45:39;21.57;;;13.58;;
43682;SDS011;29285;52.128;21.060;2022-12-22T22:50:41;21.80;;;13.45;;
43682;SDS011;29285;52.128;21.060;2022-12-22T22:55:43;19.42;;;11.50;;
43682;SDS011;29285;52.128;21.060;2022-12-22T23:00:44;17.95;;;12.47;;
43682;SDS011;29285;52.128;21.060;2022-12-22T23:05:45;18.52;;;10.82;;
43682;SDS011;29285;52.128;21.060;2022-12-22T23:10:47;24.02;;;14.20;;
43682;SDS011;29285;52.128;21.060;2022-12-22T23:15:57;17.90;;;11.85;;
43682;SDS011;29285;52.128;21.060;2022-12-22T23:21:00;23.50;;;14.87;;
43682;SDS011;29285;52.128;21.060;2022-12-22T23:26:04;21.33;;;14.33;;
43682;SDS011;29285;52.128;21.060;2022-12-22T23:31:08;18.48;;;12.00;;
43682;SDS011;29285;52.128;21.060;2022-12-22T23:36:12;25.45;;;16.67;;
43682;SDS011;29285;52.128;21.060;2022-12-22T23:41:13;20.20;;;13.80;;
43682;SDS011;29285;52.128;21.060;2022-12-22T23:46:15;19.85;;;13.70;;
43682;SDS011;29285;52.128;21.060;2022-12-22T23:51:17;17.57;;;12.55;;
43682;SDS011;29285;52.128;21.060;2022-12-22T23:56:20;19.17;;;12.53;;
